createdAt,value
2018-02-03T00:00:08.463Z,423.93
2018-02-03T00:02:35.982Z,394.53
2018-02-03T00:05:04.298Z,388.47
2018-02-03T00:07:31.813Z,383.67
2018-02-03T00:09:59.340Z,371.07
2018-02-03T00:12:26.897Z,342.47
2018-02-03T00:14:54.424Z,366.70
2018-02-03T00:17:22.701Z,361.13
2018-02-03T00:19:51.024Z,331.47
2018-02-03T00:22:18.552Z,334.30
2018-02-03T00:24:46.829Z,333.87
2018-02-03T00:27:15.149Z,317.60
2018-02-03T00:29:42.671Z,288.67
2018-02-03T00:32:10.951Z,272.07
2018-02-03T00:34:39.259Z,282.93
2018-02-03T00:37:06.777Z,280.47
2018-02-03T00:39:34.301Z,258.10
2018-02-03T00:42:01.861Z,273.50
2018-02-03T00:44:29.388Z,267.50
2018-02-03T00:46:57.672Z,254.23
2018-02-03T00:49:25.983Z,280.37
2018-02-03T00:51:53.498Z,263.43
2018-02-03T00:54:21.015Z,277.90
2018-02-03T00:56:48.552Z,265.70
2018-02-03T00:59:16.089Z,267.93
2018-02-03T01:01:44.396Z,242.17
2018-02-03T01:04:11.940Z,245.90
2018-02-03T01:06:40.217Z,253.73
2018-02-03T01:09:08.502Z,245.57
2018-02-03T01:11:36.819Z,220.77
2018-02-03T01:14:04.338Z,220.27
2018-02-03T01:16:32.616Z,208.10
2018-02-03T01:19:00.153Z,207.30
2018-02-03T01:21:28.431Z,206.97
2018-02-03T01:23:55.944Z,190.63
2018-02-03T01:26:24.258Z,188.27
2018-02-03T01:28:51.779Z,185.73
2018-02-03T01:31:20.049Z,179.87
2018-02-03T01:33:47.590Z,165.07
2018-02-03T01:36:15.120Z,176.10
2018-02-03T01:38:42.649Z,170.33
2018-02-03T01:41:10.951Z,168.60
2018-02-03T01:43:38.474Z,161.27
2018-02-03T01:46:06.008Z,162.03
2018-02-03T01:48:33.569Z,157.97
2018-02-03T01:51:01.078Z,152.90
2018-02-03T01:53:29.376Z,144.40
2018-02-03T01:55:56.899Z,150.07
2018-02-03T01:58:24.410Z,138.80
2018-02-03T02:00:51.923Z,149.90
2018-02-03T02:03:19.487Z,142.17
2018-02-03T02:05:47.020Z,147.67
2018-02-03T02:08:14.538Z,138.27
2018-02-03T02:10:42.866Z,148.30
2018-02-03T02:13:10.384Z,136.77
2018-02-03T02:15:38.658Z,134.60
2018-02-03T02:18:06.973Z,123.50
2018-02-03T02:20:34.479Z,120.13
2018-02-03T02:23:01.988Z,116.77
2018-02-03T02:25:29.520Z,124.53
2018-02-03T02:27:57.024Z,119.90
2018-02-03T02:30:24.534Z,122.27
2018-02-03T02:32:52.068Z,127.90
2018-02-03T02:35:19.579Z,120.30
2018-02-03T02:37:47.126Z,122.50
2018-02-03T02:40:14.668Z,122.00
2018-02-03T02:42:42.188Z,120.53
2018-02-03T02:45:10.475Z,130.43
2018-02-03T02:47:38.018Z,118.47
2018-02-03T02:50:06.295Z,117.83
2018-02-03T02:52:34.597Z,121.33
2018-02-03T02:55:02.104Z,111.93
2018-02-03T02:57:29.612Z,117.30
2018-02-03T02:59:57.904Z,132.33
2018-02-03T03:02:25.412Z,123.67
2018-02-03T03:04:52.927Z,120.03
2018-02-03T03:07:20.463Z,128.33
2018-02-03T03:09:47.971Z,114.57
2018-02-03T03:12:15.493Z,122.03
2018-02-03T03:14:43.024Z,120.23
2018-02-03T03:17:10.525Z,121.97
2018-02-03T03:19:38.810Z,121.67
2018-02-03T03:22:07.128Z,124.17
2018-02-03T03:24:34.648Z,116.13
2018-02-03T03:27:02.929Z,128.57
2018-02-03T03:29:31.225Z,114.53
2018-02-03T03:31:59.508Z,117.70
2018-02-03T03:34:27.806Z,120.43
2018-02-03T03:36:55.309Z,117.93
2018-02-03T03:39:22.821Z,117.27
2018-02-03T03:41:50.378Z,114.57
2018-02-03T03:44:18.648Z,118.20
2018-02-03T03:49:21.657Z,104.90
2018-02-03T03:51:49.977Z,109.20
2018-02-03T03:54:17.500Z,115.30
2018-02-03T03:56:45.794Z,110.07
2018-02-03T03:59:13.340Z,118.23
2018-02-03T04:01:41.649Z,113.07
2018-02-03T04:04:09.174Z,112.87
2018-02-03T04:06:36.730Z,115.23
2018-02-03T04:09:04.256Z,120.10
2018-02-03T04:11:31.774Z,120.83
2018-02-03T04:14:00.186Z,133.07
2018-02-03T04:16:27.704Z,134.73
2018-02-03T04:18:55.212Z,128.30
2018-02-03T04:21:22.743Z,132.60
2018-02-03T04:23:50.252Z,121.83
2018-02-03T04:26:17.768Z,116.40
2018-02-03T04:28:45.322Z,120.63
2018-02-03T04:31:12.840Z,131.60
2018-02-03T04:33:40.352Z,125.43
2018-02-03T04:36:07.887Z,130.53
2018-02-03T04:38:35.404Z,134.43
2018-02-03T04:41:03.690Z,129.37
2018-02-03T04:43:31.239Z,134.53
2018-02-03T04:45:59.521Z,114.97
2018-02-03T04:48:27.821Z,117.47
2018-02-03T04:50:55.328Z,127.80
2018-02-03T04:53:22.832Z,124.80
2018-02-03T04:55:51.140Z,136.97
2018-02-03T04:58:18.648Z,134.33
2018-02-03T05:00:46.156Z,142.90
2018-02-03T05:03:13.692Z,134.00
2018-02-03T05:05:41.974Z,159.70
2018-02-03T05:08:10.265Z,158.40
2018-02-03T05:10:37.811Z,162.93
2018-02-03T05:13:05.348Z,154.47
2018-02-03T05:15:32.871Z,152.23
2018-02-03T05:18:00.425Z,149.53
2018-02-03T05:20:27.937Z,145.53
2018-02-03T05:22:55.457Z,154.97
2018-02-03T05:25:23.009Z,143.57
2018-02-03T05:27:51.274Z,139.70
2018-02-03T05:30:19.547Z,136.00
2018-02-03T05:32:47.079Z,133.37
2018-02-03T05:35:14.586Z,131.07
2018-02-03T05:37:42.863Z,127.73
2018-02-03T05:40:11.171Z,116.27
2018-02-03T05:42:38.692Z,126.10
2018-02-03T05:45:08.220Z,133.50
2018-02-03T05:47:36.492Z,118.53
2018-02-03T05:50:04.790Z,110.17
2018-02-03T05:52:33.063Z,108.37
2018-02-03T05:55:01.334Z,108.83
2018-02-03T05:57:29.637Z,113.87
2018-02-03T05:59:57.145Z,115.83
2018-02-03T06:02:24.654Z,106.10
2018-02-03T06:04:52.964Z,106.63
2018-02-03T06:07:20.476Z,110.07
2018-02-03T06:09:47.986Z,99.93
2018-02-03T06:12:15.526Z,103.50
2018-02-03T06:14:43.040Z,109.80
2018-02-03T06:17:10.561Z,96.40
2018-02-03T06:19:38.107Z,99.30
2018-02-03T06:22:06.399Z,100.00
2018-02-03T06:24:33.915Z,104.07
2018-02-03T06:27:01.480Z,112.00
2018-02-03T06:29:28.993Z,112.53
2018-02-03T06:31:56.512Z,118.83
2018-02-03T06:34:24.051Z,162.03
2018-02-03T06:36:51.570Z,190.90
2018-02-03T06:39:19.864Z,206.63
2018-02-03T06:41:47.417Z,289.37
2018-02-03T06:44:15.696Z,399.33
2018-02-03T06:46:43.232Z,508.80
2018-02-03T06:49:10.775Z,497.90
2018-02-03T06:51:38.302Z,452.27
2018-02-03T06:54:05.816Z,427.17
2018-02-03T06:56:33.374Z,364.67
2018-02-03T06:59:00.897Z,370.93
2018-02-03T07:01:28.409Z,444.97
2018-02-03T07:03:55.940Z,475.70
2018-02-03T07:06:23.463Z,356.83
2018-02-03T07:08:51.747Z,316.53
2018-02-03T07:11:20.060Z,320.70
2018-02-03T07:13:47.593Z,246.53
2018-02-03T07:16:15.864Z,234.03
2018-02-03T07:18:44.163Z,200.00
2018-02-03T07:21:11.682Z,192.97
2018-02-03T07:23:39.197Z,150.63
2018-02-03T07:26:06.726Z,95.47
2018-02-03T07:28:34.229Z,89.00
2018-02-03T07:31:01.753Z,87.40
2018-02-03T07:33:30.048Z,93.07
2018-02-03T07:35:58.335Z,82.60
2018-02-03T07:38:25.848Z,81.63
2018-02-03T07:40:53.386Z,89.70
2018-02-03T07:43:20.899Z,93.90
2018-02-03T07:45:49.181Z,79.03
2018-02-03T07:48:16.720Z,97.23
2018-02-03T07:50:44.229Z,88.63
2018-02-03T07:53:11.748Z,94.03
2018-02-03T07:55:39.291Z,87.33
2018-02-03T07:58:06.806Z,100.27
2018-02-03T08:00:35.090Z,110.53
2018-02-03T08:03:03.395Z,114.33
2018-02-03T08:05:30.920Z,105.10
2018-02-03T08:07:58.432Z,103.80
2018-02-03T08:10:25.951Z,108.70
2018-02-03T08:12:54.224Z,107.03
2018-02-03T08:15:21.736Z,114.20
2018-02-03T08:17:49.273Z,109.40
2018-02-03T08:20:17.552Z,110.37
2018-02-03T08:22:45.860Z,111.03
2018-02-03T08:25:13.368Z,103.97
2018-02-03T08:27:40.873Z,101.70
2018-02-03T08:30:08.421Z,107.40
2018-02-03T08:32:36.704Z,97.90
2018-02-03T08:35:05.005Z,96.50
2018-02-03T08:37:32.597Z,96.60
2018-02-03T08:40:00.221Z,96.43
2018-02-03T08:42:27.785Z,101.27
2018-02-03T08:44:55.292Z,94.07
2018-02-03T08:47:22.818Z,97.27
2018-02-03T08:49:50.369Z,75.77
2018-02-03T08:52:18.651Z,79.97
2018-02-03T08:54:46.951Z,84.80
2018-02-03T08:57:14.457Z,74.37
2018-02-03T08:59:41.982Z,88.07
2018-02-03T09:02:09.525Z,95.27
2018-02-03T09:04:37.035Z,89.63
2018-02-03T09:07:04.544Z,81.13
2018-02-03T09:09:32.857Z,66.33
2018-02-03T09:12:04.240Z,69.03
2018-02-03T09:14:31.772Z,49.13
2018-02-03T09:16:59.315Z,49.00
2018-02-03T09:19:26.856Z,57.23
2018-02-03T09:21:55.193Z,65.50
2018-02-03T09:24:22.751Z,58.60
2018-02-03T09:26:50.255Z,50.43
2018-02-03T09:29:17.820Z,37.90
2018-02-03T09:31:45.361Z,39.37
2018-02-03T09:34:12.860Z,40.77
2018-02-03T09:36:41.172Z,33.73
2018-02-03T09:39:08.686Z,40.77
2018-02-03T09:41:36.212Z,37.63
2018-02-03T09:44:03.769Z,40.83
2018-02-03T09:46:31.277Z,41.63
2018-02-03T09:48:58.776Z,41.90
2018-02-03T09:51:26.316Z,40.80
2018-02-03T09:53:54.596Z,42.63
2018-02-03T09:56:22.996Z,44.93
2018-02-03T09:58:50.492Z,54.63
2018-02-03T10:01:17.994Z,42.60
2018-02-03T10:03:45.536Z,38.87
2018-02-03T10:06:13.863Z,40.60
2018-02-03T10:08:41.476Z,40.70
2018-02-03T10:11:09.142Z,37.43
2018-02-03T10:13:36.767Z,42.90
2018-02-03T10:16:04.380Z,55.20
2018-02-03T10:18:32.003Z,56.07
2018-02-03T10:20:59.703Z,51.40
2018-02-03T10:23:27.439Z,57.97
2018-02-03T10:25:55.146Z,62.63
2018-02-03T10:28:22.712Z,58.40
2018-02-03T10:30:50.217Z,62.53
2018-02-03T10:33:18.527Z,58.73
2018-02-03T10:35:46.087Z,60.83
2018-02-03T10:38:13.592Z,57.83
2018-02-03T10:40:41.158Z,55.73
2018-02-03T10:43:08.669Z,50.50
2018-02-03T10:45:36.186Z,54.60
2018-02-03T10:48:03.723Z,48.30
2018-02-03T10:50:31.227Z,55.97
2018-02-03T10:52:59.504Z,53.07
2018-02-03T10:55:27.801Z,54.07
2018-02-03T10:57:56.080Z,48.47
2018-02-03T11:00:24.376Z,47.70
2018-02-03T11:02:51.938Z,53.87
2018-02-03T11:05:19.470Z,58.60
2018-02-03T11:07:47.774Z,52.77
2018-02-03T11:10:15.321Z,47.73
2018-02-03T11:12:43.596Z,49.73
2018-02-03T11:15:11.913Z,48.90
2018-02-03T11:17:39.426Z,63.27
2018-02-03T11:20:06.940Z,60.67
2018-02-03T11:22:34.476Z,67.30
2018-02-03T11:25:02.745Z,77.00
2018-02-03T11:27:30.255Z,60.23
2018-02-03T11:29:57.787Z,62.63
2018-02-03T11:32:26.086Z,66.40
2018-02-03T11:34:53.598Z,73.20
2018-02-03T11:37:21.157Z,69.07
2018-02-03T11:39:48.670Z,66.57
2018-02-03T11:42:16.188Z,62.07
2018-02-03T11:44:43.716Z,57.30
2018-02-03T11:47:11.219Z,60.77
2018-02-03T11:49:38.736Z,57.20
2018-02-03T11:52:06.281Z,56.03
2018-02-03T11:54:33.809Z,60.20
2018-02-03T11:57:01.326Z,62.20
2018-02-03T11:59:28.863Z,56.70
2018-02-03T12:01:57.134Z,55.30
2018-02-03T12:04:25.427Z,61.83
2018-02-03T12:06:53.732Z,61.50
2018-02-03T12:09:21.256Z,63.70
2018-02-03T12:11:49.550Z,59.70
2018-02-03T12:14:17.860Z,72.80
2018-02-03T12:16:45.393Z,60.77
2018-02-03T12:19:13.673Z,56.33
2018-02-03T12:21:41.981Z,59.70
2018-02-03T12:24:09.530Z,61.20
2018-02-03T12:26:37.048Z,61.63
2018-02-03T12:29:04.599Z,65.47
2018-02-03T12:31:32.124Z,66.63
2018-02-03T12:33:59.636Z,69.00
2018-02-03T12:36:27.177Z,61.73
2018-02-03T12:38:54.701Z,64.13
2018-02-03T12:41:23.102Z,56.20
2018-02-03T12:43:50.642Z,57.17
2018-02-03T12:46:18.942Z,59.70
2018-02-03T12:48:46.536Z,56.47
2018-02-03T12:51:14.081Z,62.93
2018-02-03T12:53:41.612Z,66.73
2018-02-03T12:56:09.900Z,73.07
2018-02-03T12:58:37.451Z,72.03
2018-02-03T13:01:05.758Z,63.03
2018-02-03T13:03:33.297Z,71.57
2018-02-03T13:06:01.609Z,64.70
2018-02-03T13:08:29.132Z,85.53
2018-02-03T13:10:56.660Z,68.53
2018-02-03T13:13:24.208Z,112.00
2018-02-03T13:15:51.737Z,67.80
2018-02-03T13:18:20.065Z,66.80
2018-02-03T13:20:48.352Z,74.50
2018-02-03T13:23:15.867Z,87.00
2018-02-03T13:25:44.148Z,253.33
2018-02-03T13:28:11.687Z,70.50
2018-02-03T13:30:39.191Z,76.20
2018-02-03T13:33:06.711Z,72.87
2018-02-03T13:35:34.284Z,70.57
2018-02-03T13:38:02.569Z,72.17
2018-02-03T13:40:30.873Z,81.50
2018-02-03T13:42:58.390Z,69.97
2018-02-03T13:45:25.909Z,65.07
2018-02-03T13:47:54.300Z,76.07
2018-02-03T13:50:21.846Z,74.33
2018-02-03T13:52:49.401Z,70.57
2018-02-03T13:55:16.956Z,76.37
2018-02-03T13:57:45.243Z,134.47
2018-02-03T14:00:13.525Z,288.77
2018-02-03T14:02:41.840Z,191.17
2018-02-03T14:05:09.355Z,68.47
2018-02-03T14:07:37.660Z,55.50
2018-02-03T14:10:05.265Z,51.23
2018-02-03T14:12:32.798Z,53.47
2018-02-03T14:15:00.308Z,61.10
2018-02-03T14:17:27.847Z,54.50
2018-02-03T14:19:55.382Z,63.27
2018-02-03T14:22:22.895Z,55.13
2018-02-03T14:25:07.280Z,58.13
2018-02-03T14:27:35.568Z,59.43
2018-02-03T14:30:03.084Z,76.83
2018-02-03T14:32:30.620Z,64.07
2018-02-03T14:34:58.167Z,67.50
2018-02-03T14:37:25.683Z,64.07
2018-02-03T14:39:53.238Z,67.37
2018-02-03T14:42:20.766Z,76.97
2018-02-03T14:44:48.298Z,78.57
2018-02-03T14:47:16.619Z,79.10
2018-02-03T14:49:44.155Z,77.13
2018-02-03T14:52:11.665Z,70.93
2018-02-03T14:54:39.238Z,76.93
2018-02-03T14:57:06.756Z,77.83
2018-02-03T14:59:34.281Z,70.33
2018-02-03T15:02:01.829Z,77.73
2018-02-03T15:04:29.352Z,76.60
2018-02-03T15:06:56.866Z,72.20
2018-02-03T15:09:24.432Z,72.97
2018-02-03T15:11:52.730Z,80.27
2018-02-03T15:14:21.044Z,85.03
2018-02-03T15:16:48.561Z,76.73
2018-02-03T15:19:16.086Z,81.37
2018-02-03T15:21:43.646Z,79.13
2018-02-03T15:24:11.187Z,86.40
2018-02-03T15:26:38.722Z,76.00
2018-02-03T15:29:07.018Z,83.00
2018-02-03T15:31:34.541Z,92.87
2018-02-03T15:34:02.074Z,82.47
2018-02-03T15:36:29.654Z,82.87
2018-02-03T15:38:57.204Z,85.97
2018-02-03T15:41:24.748Z,79.60
2018-02-03T15:43:52.293Z,84.37
2018-02-03T15:46:20.577Z,79.50
2018-02-03T15:48:48.098Z,85.47
2018-02-03T15:51:15.649Z,87.20
2018-02-03T15:53:43.187Z,82.90
2018-02-03T15:56:10.723Z,83.30
2018-02-03T15:58:39.031Z,82.17
2018-02-03T16:01:06.564Z,84.43
2018-02-03T16:03:34.838Z,87.50
2018-02-03T16:06:03.194Z,86.83
2018-02-03T16:08:30.695Z,84.27
2018-02-03T16:10:59.058Z,84.20
2018-02-03T16:13:26.640Z,90.90
2018-02-03T16:15:54.912Z,90.57
2018-02-03T16:18:23.212Z,97.73
2018-02-03T16:20:50.820Z,96.77
2018-02-03T16:23:18.350Z,100.70
2018-02-03T16:25:45.865Z,97.90
2018-02-03T16:28:13.433Z,101.17
2018-02-03T16:30:40.949Z,97.50
2018-02-03T16:33:08.480Z,98.63
2018-02-03T16:35:36.775Z,98.23
2018-02-03T16:38:04.288Z,95.03
2018-02-03T16:40:31.801Z,117.80
2018-02-03T16:42:59.342Z,95.40
2018-02-03T16:45:27.619Z,91.70
2018-02-03T16:47:55.121Z,91.27
2018-02-03T16:50:22.646Z,83.30
2018-02-03T16:52:50.929Z,98.60
2018-02-03T16:55:18.467Z,88.03
2018-02-03T16:57:46.021Z,96.27
2018-02-03T17:00:13.529Z,93.50
2018-02-03T17:02:41.808Z,95.77
2018-02-03T17:05:10.142Z,92.27
2018-02-03T17:07:38.429Z,96.53
2018-02-03T17:10:06.764Z,109.37
2018-02-03T17:12:34.330Z,101.17
2018-02-03T17:15:02.731Z,116.70
2018-02-03T17:17:30.282Z,152.27
2018-02-03T17:19:57.822Z,127.33
2018-02-03T17:22:26.114Z,127.20
2018-02-03T17:24:54.435Z,122.40
2018-02-03T17:27:21.961Z,120.00
2018-02-03T17:29:50.254Z,125.30
2018-02-03T17:32:17.797Z,120.63
2018-02-03T17:34:46.089Z,118.43
2018-02-03T17:37:19.275Z,113.60
2018-02-03T17:39:47.555Z,107.97
2018-02-03T17:42:15.109Z,115.60
2018-02-03T17:44:43.432Z,111.00
2018-02-03T17:47:10.964Z,112.80
2018-02-03T17:49:39.259Z,106.00
2018-02-03T17:52:06.802Z,108.13
2018-02-03T17:54:35.180Z,111.00
2018-02-03T17:57:09.140Z,117.53
2018-02-03T17:59:36.669Z,116.30
2018-02-03T18:02:04.193Z,121.50
2018-02-03T18:04:31.745Z,127.37
2018-02-03T18:07:05.248Z,125.80
2018-02-03T18:09:32.808Z,129.87
2018-02-03T18:12:00.350Z,132.23
2018-02-03T18:14:27.869Z,127.93
2018-02-03T18:16:56.196Z,124.27
2018-02-03T18:19:23.709Z,129.23
2018-02-03T18:21:52.025Z,132.47
2018-02-03T18:24:19.561Z,134.50
2018-02-03T18:26:47.843Z,137.63
2018-02-03T18:29:16.247Z,129.33
2018-02-03T18:31:43.772Z,133.37
2018-02-03T18:34:11.312Z,138.73
2018-02-03T18:36:38.861Z,145.13
2018-02-03T18:39:06.369Z,148.23
2018-02-03T18:41:33.880Z,149.40
2018-02-03T18:44:01.451Z,144.97
2018-02-03T18:46:28.976Z,156.60
2018-02-03T18:48:57.273Z,160.67
2018-02-03T18:51:24.821Z,150.33
2018-02-03T18:53:53.098Z,152.93
2018-02-03T18:56:21.409Z,156.53
2018-02-03T18:58:48.963Z,156.40
2018-02-03T19:01:16.490Z,143.07
2018-02-03T19:03:44.005Z,140.53
2018-02-03T19:06:11.552Z,136.77
2018-02-03T19:08:39.065Z,139.70
2018-02-03T19:11:06.572Z,137.73
2018-02-03T19:13:34.135Z,143.43
2018-02-03T19:16:01.653Z,136.13
2018-02-03T19:18:29.179Z,146.53
2018-02-03T19:20:56.743Z,134.77
2018-02-03T19:23:24.262Z,126.57
2018-02-03T19:25:51.781Z,132.00
2018-02-03T19:28:19.316Z,136.40
2018-02-03T19:30:46.931Z,143.37
2018-02-03T19:33:14.426Z,137.63
2018-02-03T19:35:42.742Z,137.53
2018-02-03T19:38:10.277Z,145.93
2018-02-03T19:40:38.564Z,156.30
2018-02-03T19:43:06.106Z,156.10
2018-02-03T19:45:33.621Z,170.67
2018-02-03T19:48:01.137Z,178.07
2018-02-03T19:50:29.480Z,162.00
2018-02-03T19:52:57.002Z,167.40
2018-02-03T19:55:24.525Z,183.70
2018-02-03T19:57:52.179Z,179.50
2018-02-03T20:00:19.909Z,187.87
2018-02-03T20:02:47.438Z,206.10
2018-02-03T20:05:15.764Z,200.60
2018-02-03T20:07:43.330Z,206.07
2018-02-03T20:10:10.866Z,220.87
2018-02-03T20:12:38.425Z,240.73
2018-02-03T20:15:06.749Z,229.80
2018-02-03T20:17:34.315Z,471.13
2018-02-03T20:20:01.897Z,366.00
2018-02-03T20:22:29.473Z,378.07
2018-02-03T20:24:57.779Z,409.40
2018-02-03T20:27:26.109Z,433.20
2018-02-03T20:29:53.621Z,473.93
2018-02-03T20:32:21.918Z,484.57
2018-02-03T20:34:49.484Z,511.90
2018-02-03T20:37:17.021Z,494.70
2018-02-03T20:39:45.314Z,477.77
2018-02-03T20:42:12.896Z,453.87
2018-02-03T20:44:40.451Z,432.57
2018-02-03T20:47:08.011Z,395.40
2018-02-03T20:49:35.575Z,390.90
2018-02-03T20:52:03.113Z,370.03
2018-02-03T20:54:30.642Z,354.43
2018-02-03T20:56:58.244Z,385.40
2018-02-03T20:59:26.545Z,356.77
2018-02-03T21:01:54.897Z,353.53
2018-02-03T21:04:22.437Z,344.97
2018-02-03T21:06:49.973Z,355.43
2018-02-03T21:09:17.538Z,375.13
2018-02-03T21:11:45.066Z,518.63
2018-02-03T21:14:13.350Z,482.30
2018-02-03T21:16:41.668Z,531.23
2018-02-03T21:19:09.241Z,566.43
2018-02-03T21:21:37.006Z,549.73
2018-02-03T21:24:04.569Z,552.03
2018-02-03T21:26:32.096Z,537.90
2018-02-03T21:29:00.432Z,533.83
2018-02-03T21:31:27.988Z,544.87
2018-02-03T21:33:55.508Z,536.90
2018-02-03T21:36:23.792Z,587.33
2018-02-03T21:38:51.340Z,630.97
2018-02-03T21:41:19.637Z,583.13
2018-02-03T21:43:47.165Z,573.97
2018-02-03T21:46:14.728Z,549.17
2018-02-03T21:48:42.258Z,468.37
2018-02-03T21:51:09.787Z,445.23
2018-02-03T21:53:38.141Z,442.70
2018-02-03T21:56:05.660Z,434.37
2018-02-03T21:58:33.192Z,404.73
2018-02-03T22:01:01.590Z,365.27
2018-02-03T22:03:30.014Z,358.87
2018-02-03T22:06:00.613Z,335.97
2018-02-03T22:08:29.905Z,316.23
2018-02-03T22:10:59.902Z,324.47
2018-02-03T22:13:28.441Z,299.13
2018-02-03T22:15:57.962Z,319.83
2018-02-03T22:18:26.656Z,308.57
2018-02-03T22:20:55.159Z,358.67
2018-02-03T22:23:23.479Z,383.10
2018-02-03T22:25:52.738Z,377.83
2018-02-03T22:28:21.009Z,368.40
2018-02-03T22:30:51.221Z,338.60
2018-02-03T22:33:19.487Z,338.00
2018-02-03T22:35:48.345Z,373.33
2018-02-03T22:38:17.201Z,340.23
2018-02-03T22:40:46.401Z,353.00
2018-02-03T22:43:15.323Z,349.87
2018-02-03T22:45:44.107Z,331.73
2018-02-03T22:48:12.083Z,324.30
2018-02-03T22:50:40.024Z,334.43
2018-02-03T22:53:08.784Z,320.13
2018-02-03T22:55:37.592Z,300.40
2018-02-03T22:58:05.616Z,316.97
2018-02-03T23:00:35.706Z,298.57
2018-02-03T23:03:02.579Z,313.23
2018-02-03T23:05:30.544Z,315.97
2018-02-03T23:07:59.443Z,305.17
2018-02-03T23:10:28.204Z,313.17
2018-02-03T23:12:56.176Z,297.00
2018-02-03T23:15:24.126Z,301.10
2018-02-03T23:17:52.086Z,300.17
2018-02-03T23:20:20.843Z,292.77
2018-02-03T23:22:48.918Z,294.57
2018-02-03T23:25:16.860Z,298.43
2018-02-03T23:27:44.838Z,294.67
2018-02-03T23:30:12.789Z,284.60
2018-02-03T23:32:41.548Z,290.63
2018-02-03T23:35:09.525Z,285.70
2018-02-03T23:37:37.496Z,271.20
2018-02-03T23:40:05.432Z,274.93
2018-02-03T23:42:34.185Z,260.37
2018-02-03T23:45:02.264Z,273.70
2018-02-03T23:47:30.209Z,266.73
2018-02-03T23:49:58.191Z,257.97
2018-02-03T23:52:26.255Z,260.70
2018-02-03T23:54:54.195Z,263.23
2018-02-03T23:57:22.945Z,243.77
2018-02-03T23:59:50.956Z,255.00
